createdAt,value
2022-09-11T00:04:39.824Z,97144.61
2022-09-11T00:08:18.126Z,97141.15
2022-09-11T00:11:51.712Z,97146.80
2022-09-11T00:25:17.116Z,97156.21
2022-09-11T00:28:50.834Z,97157.19
2022-09-11T00:32:33.704Z,97159.46
2022-09-11T00:42:23.856Z,97159.52
2022-09-11T00:46:00.287Z,97158.74
2022-09-11T00:49:37.005Z,97156.93
2022-09-11T00:53:16.465Z,97148.59
2022-09-11T01:13:49.552Z,97140.25
2022-09-11T01:17:29.022Z,97142.90
2022-09-11T01:21:22.546Z,97133.64
2022-09-11T01:35:15.668Z,97130.77
2022-09-11T01:38:51.024Z,97133.70
2022-09-11T01:42:23.794Z,97133.81
2022-09-11T01:55:52.201Z,97105.18
2022-09-11T01:59:31.546Z,97103.05
2022-09-11T02:03:09.760Z,97098.55
2022-09-11T02:06:48.082Z,97093.67
2022-09-11T02:16:50.337Z,97095.65
2022-09-11T02:20:26.885Z,97099.05
2022-09-11T02:24:05.395Z,97092.20
2022-09-11T02:31:07.703Z,97089.60
2022-09-11T02:34:40.412Z,97087.64
2022-09-11T02:38:17.417Z,97083.59
2022-09-11T02:41:51.995Z,97080.75
2022-09-11T02:51:56.233Z,97081.11
2022-09-11T02:55:38.895Z,97083.30
2022-09-11T02:59:17.614Z,97079.14
2022-09-11T03:19:50.513Z,97088.50
2022-09-11T03:23:20.642Z,97089.27
2022-09-11T03:26:53.030Z,97093.57
2022-09-11T03:30:24.573Z,97090.79
2022-09-11T03:52:00.921Z,97094.00
2022-09-11T03:55:31.252Z,97095.20
2022-09-11T03:59:02.402Z,97095.69
2022-09-11T04:16:12.754Z,97104.92
2022-09-11T04:19:32.101Z,97102.31
2022-09-11T04:22:52.261Z,97107.24
2022-09-11T04:26:25.650Z,97104.96
2022-09-11T04:29:56.661Z,97102.05
2022-09-11T04:40:12.505Z,97099.16
2022-09-11T04:43:43.290Z,97094.81
2022-09-11T04:47:14.179Z,97096.30
2022-09-11T05:04:52.500Z,97092.33
2022-09-11T05:08:27.711Z,97095.54
2022-09-11T05:12:00.464Z,97097.86
2022-09-11T05:15:33.450Z,97097.14
2022-09-11T05:28:59.380Z,97102.55
2022-09-11T05:32:32.171Z,97101.04
2022-09-11T05:36:12.570Z,97098.88
2022-09-11T06:03:50.889Z,97098.36
2022-09-11T06:07:23.920Z,97098.52
2022-09-11T06:10:58.443Z,97100.41
2022-09-11T06:14:33.190Z,97102.36
2022-09-11T06:18:07.650Z,97099.16
2022-09-11T06:31:42.760Z,97102.29
2022-09-11T06:35:23.618Z,97101.14
2022-09-11T06:38:59.602Z,97101.46
2022-09-11T06:49:13.690Z,97110.86
2022-09-11T06:52:42.541Z,97111.23
2022-09-11T06:56:22.499Z,97111.02
2022-09-11T06:59:52.749Z,97112.03
2022-09-11T07:17:27.646Z,97109.23
2022-09-11T07:21:01.050Z,97109.88
2022-09-11T07:24:34.271Z,97112.07
2022-09-11T07:28:07.742Z,97109.77
2022-09-11T07:31:43.186Z,97110.39
2022-09-11T07:45:04.553Z,97112.38
2022-09-11T07:48:38.481Z,97108.23
2022-09-11T07:52:16.604Z,97105.75
2022-09-11T08:09:10.639Z,97109.81
2022-09-11T08:12:43.890Z,97113.80
2022-09-11T08:16:18.103Z,97116.92
2022-09-11T08:19:50.880Z,97117.68
2022-09-11T08:33:13.686Z,97121.83
2022-09-11T08:36:46.679Z,97126.27
2022-09-11T08:40:22.039Z,97128.98
2022-09-11T08:47:07.811Z,97128.61
2022-09-11T08:50:43.899Z,97134.04
2022-09-11T08:54:28.071Z,97128.19
2022-09-11T08:58:11.630Z,97136.24
2022-09-11T09:01:53.277Z,97131.82
2022-09-11T09:05:40.562Z,97132.65
2022-09-11T09:15:50.102Z,97135.42
2022-09-11T09:19:30.080Z,97136.61
2022-09-11T09:23:07.410Z,97139.45
2022-09-11T09:36:27.863Z,97143.84
2022-09-11T09:40:01.186Z,97145.17
2022-09-11T09:43:52.014Z,97143.39
2022-09-11T09:55:16.033Z,97149.91
2022-09-11T09:58:57.111Z,97148.70
2022-09-11T10:02:40.225Z,97140.55
2022-09-11T10:06:14.652Z,97140.30
2022-09-11T10:09:53.055Z,97144.23
2022-09-11T10:23:32.513Z,97146.88
2022-09-11T10:27:09.700Z,97142.44
2022-09-11T10:30:48.662Z,97145.55
2022-09-11T10:34:25.538Z,97141.52
2022-09-11T10:38:18.277Z,97141.61
2022-09-11T10:52:16.695Z,97141.19
2022-09-11T10:55:58.353Z,97139.84
2022-09-11T10:59:42.795Z,97143.04
2022-09-11T11:06:38.656Z,97142.66
2022-09-11T11:10:28.973Z,97139.10
2022-09-11T11:14:26.902Z,97138.59
2022-09-11T11:28:34.980Z,97147.45
2022-09-11T11:32:19.610Z,97148.64
2022-09-11T11:36:04.120Z,97152.74
2022-09-11T11:49:45.996Z,97162.23
2022-09-11T11:53:26.231Z,97164.69
2022-09-11T11:57:08.901Z,97162.59
2022-09-11T12:00:55.254Z,97165.59
2022-09-11T12:04:39.284Z,97159.94
2022-09-11T12:08:17.334Z,97157.10
2022-09-11T12:11:55.901Z,97161.29
2022-09-11T12:29:42.092Z,97141.70
2022-09-11T12:33:57.163Z,97142.04
2022-09-11T12:37:39.027Z,97135.63
2022-09-11T12:41:23.948Z,97138.24
2022-09-11T12:54:35.231Z,97128.94
2022-09-11T12:58:25.820Z,97127.47
2022-09-11T13:02:01.627Z,97128.33
2022-09-11T13:12:39.263Z,97133.96
2022-09-11T13:16:24.753Z,97140.24
2022-09-11T13:20:16.001Z,97140.02
2022-09-11T13:40:33.512Z,97127.98
2022-09-11T13:44:14.061Z,97132.82
2022-09-11T13:48:44.015Z,97139.45
2022-09-11T14:07:28.261Z,97163.66
2022-09-11T14:11:11.400Z,97162.80
2022-09-11T14:28:42.812Z,97163.59
2022-09-11T14:32:34.810Z,97157.73
2022-09-11T14:36:08.126Z,97153.05
2022-09-11T14:39:45.303Z,97148.04
2022-09-11T14:53:31.823Z,97139.39
2022-09-11T14:57:21.226Z,97136.13
2022-09-11T15:00:57.531Z,97136.14
2022-09-11T15:04:32.810Z,97138.11
2022-09-11T15:24:57.880Z,97150.10
2022-09-11T15:28:32.219Z,97149.81
2022-09-11T15:32:07.971Z,97151.50
2022-09-11T15:35:42.996Z,97158.15
2022-09-11T15:39:24.833Z,97163.02
2022-09-11T15:43:00.031Z,97163.88
2022-09-11T15:53:49.060Z,97172.65
2022-09-11T15:57:19.819Z,97174.02
2022-09-11T16:00:52.976Z,97175.79
2022-09-11T16:04:28.549Z,97184.54
2022-09-11T16:08:01.930Z,97182.65
2022-09-11T16:18:09.670Z,97186.06
2022-09-11T16:21:51.185Z,97191.58
2022-09-11T16:25:28.450Z,97190.88
2022-09-11T16:29:03.561Z,97192.64
2022-09-11T16:43:00.162Z,97196.90
2022-09-11T16:46:33.690Z,97198.33
2022-09-11T16:50:09.837Z,97203.11
2022-09-11T17:03:45.078Z,97211.55
2022-09-11T17:07:15.650Z,97213.96
2022-09-11T17:10:49.770Z,97214.02
2022-09-11T17:14:20.761Z,97218.68
2022-09-11T17:17:54.626Z,97217.52
2022-09-11T17:21:26.551Z,97224.79
2022-09-11T17:41:54.871Z,97252.83
2022-09-11T17:45:31.293Z,97260.05
2022-09-11T17:49:04.075Z,97266.66
2022-09-11T17:52:38.230Z,97274.42
2022-09-11T18:06:01.080Z,97286.83
2022-09-11T18:09:34.115Z,97291.86
2022-09-11T18:13:10.638Z,97292.05
2022-09-11T18:16:48.686Z,97293.03
2022-09-11T18:34:09.322Z,97301.35
2022-09-11T18:37:40.648Z,97304.21
2022-09-11T18:41:18.018Z,97305.66
2022-09-11T18:44:50.373Z,97311.70
2022-09-11T19:01:44.375Z,97311.95
2022-09-11T19:05:00.289Z,97319.65
2022-09-11T19:08:33.255Z,97322.26
2022-09-11T19:29:29.311Z,97323.86
2022-09-11T19:33:08.836Z,97323.66
2022-09-11T19:36:44.822Z,97326.70
2022-09-11T19:40:20.528Z,97326.55
2022-09-11T19:43:56.098Z,97327.04
2022-09-11T19:48:00.250Z,97333.75
2022-09-11T20:01:31.412Z,97340.67
2022-09-11T20:05:07.543Z,97344.14
2022-09-11T20:08:43.961Z,97340.66
2022-09-11T20:12:19.062Z,97348.27
2022-09-11T20:15:53.196Z,97344.56
2022-09-11T20:33:11.983Z,97336.16
2022-09-11T20:36:48.223Z,97339.41
2022-09-11T20:40:18.432Z,97340.42
2022-09-11T20:43:49.660Z,97341.80
2022-09-11T21:04:33.869Z,97347.02
2022-09-11T21:08:08.312Z,97350.17
2022-09-11T21:11:43.006Z,97353.98
2022-09-11T21:15:16.163Z,97351.92
2022-09-11T21:18:42.765Z,97351.42
2022-09-11T21:35:40.436Z,97355.98
2022-09-11T21:39:16.295Z,97362.80
2022-09-11T21:45:56.526Z,97370.34
2022-09-11T21:49:31.555Z,97376.16
2022-09-11T21:53:09.371Z,97373.81
2022-09-11T22:09:43.468Z,97379.92
2022-09-11T22:13:06.319Z,97373.58
2022-09-11T22:16:41.295Z,97370.77
2022-09-11T22:33:50.691Z,97374.77
2022-09-11T22:37:22.867Z,97380.67
2022-09-11T22:40:57.624Z,97377.84
2022-09-11T22:44:28.918Z,97382.99
2022-09-11T22:57:56.833Z,97388.92
2022-09-11T23:01:31.417Z,97386.53
2022-09-11T23:05:23.730Z,97381.76
2022-09-11T23:18:46.148Z,97390.08
2022-09-11T23:22:20.640Z,97390.12
2022-09-11T23:25:57.414Z,97390.39
2022-09-11T23:42:47.857Z,97397.89
2022-09-11T23:46:22.601Z,97392.36
2022-09-11T23:49:56.361Z,97394.85
